Aptos, California
Current Conditions -  °F | °C
As of 4:53 AM on Tuesday 21 Oct 2014 (Local Time) from KWVI Reporting Station
Clear Clear  
Wind Chill: 51°   Ceiling: Unl
Heat Index: 51°   Visibility: 10mi
Dew Point: 47°   Wind: 5mph
Humidity: 86%   Direction: 320°NW
Pressure: 30.07"   Gusts: NA
Location:  36.98°N, 121.89°W
Report Text: KWVI 211153Z AUTO 32004KT 10SM CLR 11/08 A3007 RMK AO2 SLP182 T01060083 10128 20100 56008
Loading
Personal Weather Stations






























Interactive Weather Map New forecast layout! Learn more

10-Day Weather Forecast

Advertisements
Track Severe Weather on mobile